Time;durP1;ratioP1;P1;durP2;ratioP2;P2;SDS_P1;SDS_P2;PMS_P1;PMS_P2;Temp;Humidity;BMP_temperature;BMP_pressure;BME280_temperature;BME280_humidity;BME280_pressure;Samples;Min_cycle;Max_cycle;Signal;HPM_P1;HPM_P2
2023/05/01 00:01:38;;;;;;;6.35;1.60;;;13.50;67.60;;;;;;5073191;28;20548;-74
2023/05/01 00:04:04;;;;;;;4.82;1.50;;;13.50;67.80;;;;;;5055202;28;20021;-74
2023/05/01 00:06:32;;;;;;;7.32;1.70;;;13.40;67.90;;;;;;5072070;28;20021;-74
2023/05/01 00:08:58;;;;;;;5.40;2.08;;;13.40;67.90;;;;;;5071968;28;20052;-74
2023/05/01 00:11:24;;;;;;;4.68;1.70;;;13.40;68.10;;;;;;5073178;28;20481;-74
2023/05/01 00:13:50;;;;;;;4.28;1.48;;;13.30;68.20;;;;;;5073390;28;20043;-74
2023/05/01 00:16:16;;;;;;;5.72;1.55;;;13.30;68.40;;;;;;5073638;28;20495;-74
2023/05/01 00:18:42;;;;;;;4.72;1.30;;;13.30;68.50;;;;;;5072374;28;20024;-74
2023/05/01 00:21:08;;;;;;;5.95;1.95;;;13.30;68.70;;;;;;5072390;28;20381;-74
2023/05/01 00:23:33;;;;;;;4.00;1.13;;;13.20;68.80;;;;;;5071844;28;20036;-74
2023/05/01 00:25:59;;;;;;;4.25;1.60;;;13.20;68.80;;;;;;5073172;28;20032;-74
2023/05/01 00:28:25;;;;;;;3.53;1.33;;;13.20;68.90;;;;;;5072950;28;20071;-74
2023/05/01 00:30:51;;;;;;;4.80;1.75;;;13.20;69.00;;;;;;5073020;28;20080;-74
2023/05/01 00:33:16;;;;;;;6.07;1.50;;;13.20;69.10;;;;;;5071841;28;20082;-74
2023/05/01 00:35:45;;;;;;;4.13;1.52;;;13.20;69.30;;;;;;5071936;28;20040;-74
2023/05/01 00:38:11;;;;;;;5.53;1.50;;;13.10;69.30;;;;;;5072974;28;20062;-74
2023/05/01 00:40:44;;;;;;;5.03;1.73;;;13.10;69.40;;;;;;5073075;28;20025;-74
2023/05/01 00:43:10;;;;;;;8.82;1.90;;;13.10;69.50;;;;;;5073120;28;20078;-74
2023/05/01 00:45:37;;;;;;;5.32;1.58;;;13.10;69.50;;;;;;5072670;28;20021;-74
2023/05/01 00:48:04;;;;;;;6.35;1.63;;;13.10;69.60;;;;;;5072826;28;20534;-74
2023/05/01 00:50:30;;;;;;;6.55;2.03;;;13.10;69.70;;;;;;5071762;28;20081;-75
2023/05/01 00:52:56;;;;;;;7.05;2.13;;;13.10;69.70;;;;;;5072359;28;20032;-74
2023/05/01 00:55:22;;;;;;;5.55;1.85;;;13.10;69.70;;;;;;5071722;28;20033;-74
2023/05/01 00:57:47;;;;;;;6.82;1.92;;;13.00;69.70;;;;;;5072903;28;20534;-74
2023/05/01 01:00:13;;;;;;;4.03;1.90;;;13.00;69.80;;;;;;5071998;28;20029;-74
2023/05/01 01:02:39;;;;;;;5.25;1.95;;;13.00;69.90;;;;;;5071584;28;20020;-74
2023/05/01 01:05:05;;;;;;;8.60;2.08;;;13.00;70.00;;;;;;5072744;28;20473;-74
2023/05/01 01:07:36;;;;;;;5.25;1.98;;;13.00;69.90;;;;;;5071484;28;20031;-74
2023/05/01 01:10:11;;;;;;;4.72;1.65;;;12.90;69.80;;;;;;5076180;28;20024;-74
2023/05/01 01:13:06;;;;;;;8.07;1.63;;;12.90;69.80;;;;;;5076081;28;20043;-74
2023/05/01 01:15:43;;;;;;;4.25;1.63;;;12.90;70.00;;;;;;5076302;28;20487;-80
2023/05/01 01:18:17;;;;;;;6.32;1.83;;;12.90;70.00;;;;;;5076019;28;20079;-81
2023/05/01 01:20:53;;;;;;;7.07;1.90;;;12.90;70.00;;;;;;5075028;28;20031;-81
2023/05/01 01:23:29;;;;;;;8.00;2.03;;;12.80;69.80;;;;;;5075929;28;20522;-81
2023/05/01 01:26:29;;;;;;;6.45;2.35;;;12.90;69.90;;;;;;5076108;28;20024;-80
2023/05/01 01:29:24;;;;;;;5.35;1.42;;;12.80;69.80;;;;;;5076016;28;20036;-80
2023/05/01 01:32:02;;;;;;;5.38;1.80;;;12.80;69.80;;;;;;5075786;28;20089;-80
2023/05/01 01:34:42;;;;;;;6.38;1.60;;;12.80;69.90;;;;;;5074513;28;20434;-81
2023/05/01 01:37:19;;;;;;;5.68;1.95;;;12.80;70.00;;;;;;5075791;28;20047;-80
2023/05/01 01:39:48;;;;;;;5.97;1.70;;;12.80;69.80;;;;;;5075950;28;20024;-81
2023/05/01 01:42:20;;;;;;;5.85;1.83;;;12.70;69.90;;;;;;5075721;28;20048;-81
2023/05/01 01:44:55;;;;;;;4.72;1.70;;;12.80;70.00;;;;;;5075596;28;20036;-80
2023/05/01 01:47:27;;;;;;;6.63;1.65;;;12.80;69.90;;;;;;5074166;28;20025;-80
2023/05/01 01:49:55;;;;;;;5.20;1.50;;;12.80;69.90;;;;;;5075590;28;20064;-81
2023/05/01 01:52:23;;;;;;;7.40;2.20;;;12.70;69.80;;;;;;5074430;28;20075;-81
2023/05/01 01:54:57;;;;;;;6.75;2.15;;;12.70;69.80;;;;;;5075445;28;20469;-81
2023/05/01 01:57:24;;;;;;;6.75;1.92;;;12.70;69.80;;;;;;5075278;28;20020;-81
2023/05/01 01:59:50;;;;;;;5.40;2.05;;;12.70;69.80;;;;;;5075321;28;20029;-81
2023/05/01 02:02:19;;;;;;;6.28;2.25;;;12.70;69.80;;;;;;5075513;28;20020;-81
2023/05/01 02:04:47;;;;;;;5.57;1.83;;;12.70;69.80;;;;;;5075449;28;20021;-81
2023/05/01 02:07:14;;;;;;;6.93;2.05;;;12.70;69.90;;;;;;5075246;28;20113;-81
2023/05/01 02:09:41;;;;;;;4.60;1.50;;;12.70;69.90;;;;;;5075149;28;20021;-80
2023/05/01 02:12:07;;;;;;;6.95;1.75;;;12.70;70.00;;;;;;5075205;28;20038;-81
2023/05/01 02:14:34;;;;;;;5.93;1.63;;;12.70;70.10;;;;;;5075048;28;20025;-81
2023/05/01 02:17:01;;;;;;;4.53;1.67;;;12.70;70.00;;;;;;5075003;28;20031;-81
2023/05/01 02:19:28;;;;;;;4.57;1.65;;;12.80;70.00;;;;;;5073831;28;20033;-81
2023/05/01 02:21:56;;;;;;;4.32;1.48;;;12.80;69.90;;;;;;5074934;28;20021;-80
2023/05/01 02:24:23;;;;;;;6.10;1.92;;;12.80;70.20;;;;;;5074910;28;20032;-81
2023/05/01 02:27:00;;;;;;;4.82;1.50;;;12.80;69.70;;;;;;5073717;28;20032;-81
2023/05/01 02:29:26;;;;;;;4.85;1.90;;;12.80;69.80;;;;;;5074778;28;20025;-80
2023/05/01 02:31:53;;;;;;;4.95;1.98;;;12.80;69.70;;;;;;5074688;28;20024;-81
2023/05/01 02:34:18;;;;;;;5.90;1.80;;;12.80;69.70;;;;;;5073709;28;20031;-81
2023/05/01 02:36:44;;;;;;;5.15;1.83;;;12.80;69.60;;;;;;5071994;28;20032;-80
2023/05/01 02:39:10;;;;;;;4.10;1.58;;;12.80;69.60;;;;;;5074555;28;20036;-81
2023/05/01 02:41:37;;;;;;;6.63;1.52;;;12.80;69.60;;;;;;5074569;28;20107;-80
2023/05/01 02:44:05;;;;;;;7.78;2.00;;;12.80;69.50;;;;;;5074478;28;20051;-81
2023/05/01 02:46:34;;;;;;;7.03;1.75;;;12.80;69.50;;;;;;5074287;28;20021;-81
2023/05/01 02:49:02;;;;;;;6.93;2.30;;;12.80;69.50;;;;;;5074271;28;20108;-81
2023/05/01 02:51:30;;;;;;;4.85;1.92;;;12.80;69.50;;;;;;5074299;28;20472;-81
2023/05/01 02:53:58;;;;;;;8.50;1.50;;;12.80;69.50;;;;;;5074276;28;20028;-80
2023/05/01 02:56:26;;;;;;;10.15;2.17;;;12.80;69.50;;;;;;5074088;28;20439;-80
2023/05/01 02:58:52;;;;;;;6.57;1.95;;;12.80;69.40;;;;;;5072762;28;20115;-80
2023/05/01 03:01:18;;;;;;;5.40;1.90;;;12.80;69.40;;;;;;5072970;28;20048;-80
2023/05/01 03:03:44;;;;;;;5.90;1.75;;;12.80;69.40;;;;;;5073042;28;20051;-81
2023/05/01 03:06:09;;;;;;;6.10;2.05;;;12.80;70.00;;;;;;5073008;28;20545;-80
2023/05/01 03:08:35;;;;;;;6.60;2.05;;;12.80;69.40;;;;;;5074109;28;20025;-81
2023/05/01 03:11:05;;;;;;;9.52;1.65;;;12.70;69.30;;;;;;5074024;28;20107;-81
2023/05/01 03:13:31;;;;;;;8.18;1.88;;;12.70;69.30;;;;;;5072691;28;20029;-79
2023/05/01 03:15:57;;;;;;;11.32;2.50;;;12.80;69.30;;;;;;5055946;28;20477;-81
2023/05/01 03:18:22;;;;;;;5.97;1.98;;;12.70;69.30;;;;;;5073774;28;20086;-80
2023/05/01 03:20:52;;;;;;;4.53;1.77;;;12.70;69.30;;;;;;5072605;28;20033;-81
2023/05/01 03:23:18;;;;;;;7.60;2.13;;;12.70;69.40;;;;;;5073800;28;20025;-81
2023/05/01 03:25:43;;;;;;;4.13;1.90;;;12.60;69.30;;;;;;5073759;28;20146;-80
2023/05/01 03:28:09;;;;;;;6.47;1.88;;;12.70;69.30;;;;;;5072661;28;20388;-81
2023/05/01 03:30:35;;;;;;;6.00;1.85;;;12.70;69.30;;;;;;5073204;28;20433;-80
2023/05/01 03:33:01;;;;;;;5.53;2.25;;;12.70;69.30;;;;;;5072471;28;20036;-80
2023/05/01 03:35:26;;;;;;;7.50;1.63;;;12.70;69.20;;;;;;5073577;28;20385;-80
2023/05/01 03:37:52;;;;;;;5.40;2.40;;;12.70;69.30;;;;;;5073563;28;20032;-81
2023/05/01 03:40:18;;;;;;;6.78;1.58;;;12.60;69.20;;;;;;5072481;28;20119;-81
2023/05/01 03:42:43;;;;;;;8.05;2.20;;;12.70;69.20;;;;;;5073481;28;20035;-80
2023/05/01 03:45:10;;;;;;;5.25;1.60;;;12.60;69.10;;;;;;5073441;28;20032;-80
2023/05/01 03:47:35;;;;;;;6.15;1.95;;;12.60;69.00;;;;;;5073550;28;20027;-81
2023/05/01 03:50:02;;;;;;;6.38;2.05;;;12.60;69.10;;;;;;5072359;28;20028;-81
2023/05/01 03:52:27;;;;;;;6.32;1.88;;;12.60;69.20;;;;;;5073469;28;20069;-81
2023/05/01 03:54:53;;;;;;;4.93;1.88;;;12.60;69.20;;;;;;5073141;28;20029;-80
2023/05/01 03:57:22;;;;;;;5.50;2.30;;;12.60;69.20;;;;;;5071897;28;20033;-81
2023/05/01 03:59:48;;;;;;;5.18;2.40;;;12.50;69.10;;;;;;5072927;28;20027;-82
2023/05/01 04:02:15;;;;;;;7.10;2.30;;;12.60;69.20;;;;;;5073254;28;20028;-81
2023/05/01 04:04:40;;;;;;;5.28;1.85;;;12.60;69.30;;;;;;5071733;28;20499;-82
2023/05/01 04:07:06;;;;;;;5.18;1.90;;;12.60;69.20;;;;;;5071954;28;20036;-82
2023/05/01 04:09:32;;;;;;;6.38;2.40;;;12.50;69.20;;;;;;5073054;28;20020;-81
2023/05/01 04:11:57;;;;;;;5.57;1.90;;;12.60;69.30;;;;;;5073129;28;20422;-81
2023/05/01 04:14:23;;;;;;;5.82;2.60;;;12.60;69.30;;;;;;5073399;28;20025;-81
2023/05/01 04:16:50;;;;;;;5.18;2.42;;;12.60;69.40;;;;;;5070401;28;20033;-82
2023/05/01 04:19:15;;;;;;;4.72;1.98;;;12.60;69.40;;;;;;5064432;28;20032;-81
2023/05/01 04:21:41;;;;;;;7.03;1.98;;;12.60;69.40;;;;;;5068826;28;20028;-81
2023/05/01 04:24:07;;;;;;;10.07;2.42;;;12.60;70.10;;;;;;5055721;28;20025;-82
2023/05/01 04:26:32;;;;;;;6.25;2.20;;;12.60;69.50;;;;;;5068092;28;20059;-82
2023/05/01 04:28:59;;;;;;;8.38;2.47;;;12.60;69.50;;;;;;5053387;28;20090;-81
2023/05/01 04:31:25;;;;;;;5.13;1.98;;;12.60;69.50;;;;;;5052565;28;20553;-82
2023/05/01 04:33:51;;;;;;;5.97;2.55;;;12.50;69.40;;;;;;5052784;28;20142;-82
2023/05/01 04:36:17;;;;;;;8.07;2.42;;;12.60;69.40;;;;;;5035257;28;20033;-82
2023/05/01 04:38:43;;;;;;;7.72;2.55;;;12.60;69.40;;;;;;5052769;28;20040;-82
2023/05/01 04:41:08;;;;;;;6.95;2.22;;;12.60;69.50;;;;;;5051652;28;20029;-76
2023/05/01 04:43:34;;;;;;;6.25;2.40;;;12.60;69.60;;;;;;5055140;28;20029;-75
2023/05/01 04:46:00;;;;;;;6.15;2.45;;;12.60;69.70;;;;;;5071990;28;20025;-75
2023/05/01 04:48:25;;;;;;;5.47;2.08;;;12.50;69.70;;;;;;5055521;28;20469;-76
2023/05/01 04:50:51;;;;;;;6.80;2.10;;;12.60;69.90;;;;;;5057256;28;20116;-76
2023/05/01 04:53:16;;;;;;;5.10;2.10;;;12.60;69.80;;;;;;5055360;28;20032;-76
2023/05/01 04:55:42;;;;;;;7.65;2.22;;;12.60;69.80;;;;;;5038751;28;20040;-75
2023/05/01 04:58:08;;;;;;;6.05;1.90;;;12.60;69.90;;;;;;5056545;28;20366;-76
2023/05/01 05:00:33;;;;;;;9.15;2.25;;;12.60;70.00;;;;;;5038677;28;20106;-76
2023/05/01 05:02:59;;;;;;;5.38;2.28;;;12.60;70.10;;;;;;5038965;28;20017;-76
2023/05/01 05:05:25;;;;;;;10.60;2.53;;;12.60;70.10;;;;;;5056857;28;20105;-76
2023/05/01 05:07:50;;;;;;;9.68;3.08;;;12.60;70.00;;;;;;5056663;28;20029;-77
2023/05/01 05:10:16;;;;;;;5.07;2.28;;;12.60;70.00;;;;;;5055080;28;20144;-75
2023/05/01 05:12:41;;;;;;;5.65;2.15;;;12.60;70.10;;;;;;5055160;28;20053;-76
2023/05/01 05:15:07;;;;;;;6.50;2.00;;;12.70;70.20;;;;;;5054818;28;20041;-76
2023/05/01 05:17:33;;;;;;;7.53;2.47;;;12.70;70.10;;;;;;5038603;28;20073;-75
2023/05/01 05:19:59;;;;;;;5.03;2.10;;;12.70;70.00;;;;;;5056355;28;20528;-75
2023/05/01 05:22:25;;;;;;;7.35;2.28;;;12.70;70.00;;;;;;5054875;28;20075;-75
2023/05/01 05:25:02;;;;;;;7.15;2.08;;;12.80;70.00;;;;;;5038259;28;20032;-75
2023/05/01 05:27:31;;;;;;;7.70;2.10;;;12.70;69.90;;;;;;5057360;28;20049;-76
2023/05/01 05:29:56;;;;;;;5.63;2.25;;;12.80;70.00;;;;;;5075806;28;20094;-82
2023/05/01 05:32:22;;;;;;;3.88;2.15;;;12.80;70.00;;;;;;5074175;28;20488;-81
2023/05/01 05:34:48;;;;;;;8.88;2.47;;;12.80;69.90;;;;;;5074320;28;20130;-81
2023/05/01 05:37:14;;;;;;;4.82;2.08;;;12.80;70.00;;;;;;5075796;28;20070;-81
2023/05/01 05:39:40;;;;;;;5.38;2.22;;;12.90;69.80;;;;;;5075895;28;20032;-81
2023/05/01 05:42:05;;;;;;;9.98;2.50;;;12.90;69.70;;;;;;5075596;28;20036;-81
2023/05/01 05:44:31;;;;;;;9.73;3.20;;;12.90;69.60;;;;;;5057604;28;20485;-81
2023/05/01 05:46:57;;;;;;;5.88;2.40;;;12.90;69.60;;;;;;5074061;28;20082;-81
2023/05/01 05:49:23;;;;;;;7.25;2.88;;;13.00;69.60;;;;;;5074400;28;20032;-81
2023/05/01 05:51:48;;;;;;;5.53;2.40;;;12.90;69.60;;;;;;5075676;28;20082;-81
2023/05/01 05:54:14;;;;;;;6.10;2.47;;;13.00;69.60;;;;;;5075033;28;20037;-81
2023/05/01 05:56:39;;;;;;;8.38;3.65;;;13.00;69.60;;;;;;5074415;28;20059;-81
2023/05/01 05:59:05;;;;;;;6.80;3.15;;;13.00;69.60;;;;;;5075217;28;20067;-82
2023/05/01 06:01:31;;;;;;;6.97;3.40;;;13.00;69.70;;;;;;5075202;28;20028;-81
2023/05/01 06:03:57;;;;;;;7.13;2.53;;;13.00;69.70;;;;;;5075263;28;20025;-81
2023/05/01 06:06:23;;;;;;;5.72;2.25;;;13.00;69.80;;;;;;5074016;28;20175;-82
2023/05/01 06:08:48;;;;;;;6.25;2.35;;;13.10;69.90;;;;;;5075029;28;20029;-82
2023/05/01 06:11:14;;;;;;;8.07;2.65;;;13.10;69.90;;;;;;5073905;28;20445;-82
2023/05/01 06:13:40;;;;;;;7.03;2.95;;;13.10;69.90;;;;;;5075134;28;20107;-82
2023/05/01 06:16:06;;;;;;;7.32;2.60;;;13.10;69.90;;;;;;5073777;28;20041;-82
2023/05/01 06:18:32;;;;;;;7.93;2.95;;;13.10;70.00;;;;;;5072316;28;20059;-82
2023/05/01 06:20:58;;;;;;;8.68;2.70;;;13.10;70.00;;;;;;5074476;28;20034;-81
2023/05/01 06:23:24;;;;;;;5.13;2.20;;;13.10;70.20;;;;;;5073356;28;20029;-82
2023/05/01 06:25:50;;;;;;;7.40;3.15;;;13.10;70.10;;;;;;5073339;28;20050;-82
2023/05/01 06:28:16;;;;;;;9.25;3.38;;;13.20;70.10;;;;;;5074391;28;20410;-81
2023/05/01 06:30:42;;;;;;;4.45;2.40;;;13.10;70.00;;;;;;5073339;28;20055;-82
2023/05/01 06:33:09;;;;;;;5.40;2.70;;;13.20;70.20;;;;;;5073188;28;20032;-82
2023/05/01 06:35:35;;;;;;;7.50;2.75;;;13.20;70.30;;;;;;5074504;28;20028;-82
2023/05/01 06:38:02;;;;;;;9.18;2.92;;;13.20;70.20;;;;;;5072948;28;20037;-81
2023/05/01 06:40:30;;;;;;;7.63;2.85;;;13.30;70.30;;;;;;5074564;28;20116;-82
2023/05/01 06:42:56;;;;;;;7.57;3.17;;;13.30;70.20;;;;;;5074170;28;20089;-82
2023/05/01 06:45:22;;;;;;;7.57;3.50;;;13.30;70.20;;;;;;5073113;28;20029;-83
2023/05/01 06:47:47;;;;;;;7.05;3.17;;;13.30;70.00;;;;;;5072623;28;20044;-82
2023/05/01 06:50:13;;;;;;;9.90;3.33;;;13.30;70.00;;;;;;5073007;28;20033;-81
2023/05/01 06:52:40;;;;;;;5.97;2.58;;;13.30;70.00;;;;;;5074147;28;20032;-82
2023/05/01 06:55:06;;;;;;;10.05;3.05;;;13.40;69.90;;;;;;5072837;28;20082;-82
2023/05/01 06:57:31;;;;;;;9.75;3.33;;;13.40;70.00;;;;;;5074096;28;20032;-82
2023/05/01 06:59:57;;;;;;;6.88;3.20;;;13.50;70.00;;;;;;5073680;28;20035;-82
2023/05/01 07:02:23;;;;;;;8.85;3.25;;;13.60;69.90;;;;;;5055687;28;20577;-82
2023/05/01 07:04:48;;;;;;;8.65;3.58;;;13.60;69.70;;;;;;5072669;28;20080;-82
2023/05/01 07:07:14;;;;;;;6.78;3.25;;;13.70;69.70;;;;;;5073494;28;20086;-76
2023/05/01 07:09:40;;;;;;;8.52;4.03;;;13.80;69.60;;;;;;5073104;28;20031;-76
2023/05/01 07:12:06;;;;;;;8.23;2.80;;;13.80;69.50;;;;;;5074099;28;20020;-76
2023/05/01 07:14:33;;;;;;;7.50;3.08;;;13.90;69.40;;;;;;5073884;28;20430;-76
2023/05/01 07:16:59;;;;;;;9.65;3.72;;;14.00;69.40;;;;;;5073145;28;20071;-76
2023/05/01 07:19:25;;;;;;;7.78;3.15;;;14.00;69.30;;;;;;5072923;28;20025;-76
2023/05/01 07:21:50;;;;;;;6.68;3.45;;;14.00;69.20;;;;;;5073717;28;20465;-76
2023/05/01 07:24:16;;;;;;;8.25;3.22;;;14.10;69.20;;;;;;5072412;28;20365;-76
2023/05/01 07:26:42;;;;;;;9.07;3.22;;;14.20;69.30;;;;;;5072951;28;20024;-76
2023/05/01 07:29:07;;;;;;;6.30;3.05;;;14.20;69.20;;;;;;5072807;28;20032;-76
2023/05/01 07:31:33;;;;;;;7.50;2.78;;;14.30;69.30;;;;;;5072125;28;20044;-76
2023/05/01 07:33:59;;;;;;;8.23;3.97;;;14.40;69.30;;;;;;5073030;28;20036;-76
2023/05/01 07:36:24;;;;;;;9.38;3.25;;;14.50;69.20;;;;;;5073634;28;20373;-77
2023/05/01 07:38:50;;;;;;;8.63;2.95;;;14.60;69.10;;;;;;5055381;28;20033;-77
2023/05/01 07:41:16;;;;;;;11.80;3.22;;;14.70;68.90;;;;;;5072224;28;20052;-76
2023/05/01 07:43:41;;;;;;;9.20;3.17;;;14.80;68.80;;;;;;5072814;28;20025;-76
2023/05/01 07:46:07;;;;;;;7.45;3.40;;;14.80;68.50;;;;;;5073738;28;20103;-76
2023/05/01 07:48:33;;;;;;;10.02;3.30;;;14.90;68.30;;;;;;5072758;28;20029;-76
2023/05/01 07:51:02;;;;;;;7.32;3.75;;;15.00;68.20;;;;;;5072134;28;20031;-77
2023/05/01 07:53:28;;;;;;;10.40;3.08;;;15.10;68.00;;;;;;5073535;28;20032;-77
2023/05/01 07:56:02;;;;;;;10.75;3.03;;;15.20;67.90;;;;;;5072288;28;20368;-76
2023/05/01 07:58:28;;;;;;;7.32;2.95;;;15.20;67.70;;;;;;5072133;28;20025;-77
2023/05/01 08:00:54;;;;;;;8.73;2.55;;;15.30;67.60;;;;;;5073626;28;20028;-76
2023/05/01 08:03:19;;;;;;;10.00;4.28;;;15.40;67.60;;;;;;5073900;28;20513;-76
2023/05/01 08:05:45;;;;;;;9.75;3.42;;;15.40;67.20;;;;;;5073199;28;20078;-76
2023/05/01 08:08:12;;;;;;;11.15;4.10;;;15.50;67.10;;;;;;5073184;28;20044;-76
2023/05/01 08:10:37;;;;;;;7.82;3.35;;;15.60;66.80;;;;;;5072433;28;20028;-76
2023/05/01 08:13:03;;;;;;;7.38;3.42;;;15.70;67.30;;;;;;5071509;28;20043;-76
2023/05/01 08:15:29;;;;;;;9.55;4.13;;;15.70;66.40;;;;;;5073025;28;20079;-76
2023/05/01 08:17:54;;;;;;;7.65;2.97;;;15.80;66.40;;;;;;5075731;28;20111;-76
2023/05/01 08:20:20;;;;;;;9.23;3.05;;;15.80;66.40;;;;;;5076230;28;20024;-77
2023/05/01 08:22:45;;;;;;;9.75;3.63;;;15.90;66.30;;;;;;5059138;28;20020;-77
2023/05/01 08:25:11;;;;;;;8.93;3.40;;;16.00;66.20;;;;;;5077535;28;20074;-77
2023/05/01 08:27:37;;;;;;;6.28;2.80;;;16.00;66.20;;;;;;5075764;28;20496;-76
2023/05/01 08:30:03;;;;;;;7.43;3.38;;;16.00;66.20;;;;;;5075676;28;20041;-76
2023/05/01 08:32:29;;;;;;;8.25;3.13;;;16.10;66.20;;;;;;5076853;28;20044;-76
2023/05/01 08:34:55;;;;;;;10.00;3.83;;;16.20;66.10;;;;;;5075785;28;20028;-76
2023/05/01 08:37:20;;;;;;;7.45;2.97;;;16.20;66.00;;;;;;5075849;28;20028;-77
2023/05/01 08:39:46;;;;;;;6.55;3.38;;;16.30;65.90;;;;;;5075094;28;20048;-76
2023/05/01 08:42:12;;;;;;;6.18;2.95;;;16.40;65.90;;;;;;5075614;28;20098;-75
2023/05/01 08:44:41;;;;;;;7.85;3.10;;;16.50;65.90;;;;;;5058967;28;20025;-75
2023/05/01 08:47:14;;;;;;;8.65;3.30;;;16.50;65.70;;;;;;5076908;28;20361;-77
2023/05/01 08:49:41;;;;;;;7.90;2.92;;;16.60;65.20;;;;;;5076139;28;20059;-75
2023/05/01 08:52:10;;;;;;;8.20;3.47;;;16.60;65.10;;;;;;5075694;28;20024;-76
2023/05/01 08:54:41;;;;;;;7.32;3.22;;;16.60;65.00;;;;;;5077010;28;20025;-75
2023/05/01 08:57:11;;;;;;;7.68;3.30;;;16.70;65.00;;;;;;5076251;28;20107;-75
2023/05/01 08:59:37;;;;;;;8.00;2.80;;;16.80;64.90;;;;;;5074863;28;20115;-75
2023/05/01 09:02:04;;;;;;;7.20;2.75;;;16.80;64.70;;;;;;5076388;28;20025;-75
2023/05/01 09:04:40;;;;;;;12.52;3.40;;;16.90;64.70;;;;;;5076389;28;20052;-75
2023/05/01 09:07:06;;;;;;;7.07;3.10;;;16.90;64.60;;;;;;5074859;28;20029;-75
2023/05/01 09:09:33;;;;;;;6.07;2.60;;;17.00;64.60;;;;;;5076368;28;20135;-77
2023/05/01 09:12:03;;;;;;;4.75;2.33;;;17.10;64.50;;;;;;5076331;28;20484;-77
2023/05/01 09:14:31;;;;;;;10.70;3.22;;;17.20;64.00;;;;;;5075970;28;20024;-77
2023/05/01 09:16:57;;;;;;;9.68;3.35;;;17.30;63.80;;;;;;5076197;28;20499;-77
2023/05/01 09:19:23;;;;;;;8.07;2.30;;;17.40;63.80;;;;;;5074730;28;20028;-75
2023/05/01 09:21:49;;;;;;;5.47;2.35;;;17.50;63.90;;;;;;5074869;28;20473;-77
2023/05/01 09:24:15;;;;;;;5.75;2.80;;;17.70;63.90;;;;;;5075922;28;20024;-77
2023/05/01 09:26:41;;;;;;;5.35;2.38;;;17.80;63.60;;;;;;5076008;28;20403;-77
2023/05/01 09:29:09;;;;;;;6.57;2.53;;;17.90;63.20;;;;;;5075324;28;20029;-77
2023/05/01 09:31:35;;;;;;;5.70;2.40;;;18.10;63.00;;;;;;5075482;28;20064;-77
2023/05/01 09:34:03;;;;;;;13.90;2.85;;;18.30;62.80;;;;;;5074773;28;20033;-77
2023/05/01 09:36:31;;;;;;;5.75;2.55;;;18.50;62.10;;;;;;5057647;28;20028;-77
2023/05/01 09:38:59;;;;;;;6.25;2.75;;;18.70;61.60;;;;;;5074197;28;20083;-73
2023/05/01 09:41:25;;;;;;;5.53;2.00;;;18.80;61.00;;;;;;5074492;28;20496;-74
2023/05/01 09:43:53;;;;;;;5.72;2.20;;;19.00;60.90;;;;;;5074515;28;20029;-75
2023/05/01 09:46:21;;;;;;;7.20;2.60;;;19.10;60.70;;;;;;5073734;28;20032;-75
2023/05/01 09:49:01;;;;;;;5.00;2.40;;;19.30;60.30;;;;;;5075445;28;20032;-75
2023/05/01 09:51:32;;;;;;;7.72;2.63;;;19.40;60.00;;;;;;5074780;28;20024;-77
2023/05/01 09:53:59;;;;;;;9.07;2.28;;;19.50;59.70;;;;;;5075230;28;20603;-76
2023/05/01 09:56:30;;;;;;;5.45;2.20;;;19.60;59.60;;;;;;5075363;28;20056;-77
2023/05/01 09:58:58;;;;;;;5.22;2.05;;;19.80;59.40;;;;;;5073517;28;20044;-77
2023/05/01 10:01:38;;;;;;;6.07;2.20;;;20.00;59.10;;;;;;5075137;28;20038;-77
2023/05/01 10:04:04;;;;;;;5.60;1.63;;;20.20;58.70;;;;;;5075052;28;20020;-76
2023/05/01 10:06:30;;;;;;;6.85;1.60;;;20.40;58.60;;;;;;5073918;28;20025;-77
2023/05/01 10:08:56;;;;;;;5.13;1.40;;;20.50;58.00;;;;;;5073647;28;20423;-77
2023/05/01 10:11:22;;;;;;;4.72;1.63;;;20.70;57.80;;;;;;5073057;28;20024;-77
2023/05/01 10:14:08;;;;;;;5.93;1.38;;;20.90;57.30;;;;;;5073456;28;20040;-77
2023/05/01 10:16:35;;;;;;;5.70;1.98;;;21.20;56.70;;;;;;5072918;28;20016;-77
2023/05/01 10:19:02;;;;;;;4.97;1.63;;;21.40;56.30;;;;;;5073344;28;20361;-77
2023/05/01 10:21:27;;;;;;;3.15;1.48;;;21.60;55.70;;;;;;5056718;28;20499;-77
2023/05/01 10:23:54;;;;;;;7.70;1.58;;;21.80;55.50;;;;;;5074363;28;20025;-77
2023/05/01 10:26:20;;;;;;;6.18;1.45;;;22.10;55.10;;;;;;5073283;28;20074;-77
2023/05/01 10:28:47;;;;;;;4.07;1.60;;;22.20;54.40;;;;;;5072897;28;20040;-77
2023/05/01 10:31:14;;;;;;;3.08;1.30;;;22.50;54.10;;;;;;5074284;28;20447;-75
2023/05/01 10:33:41;;;;;;;4.68;1.27;;;22.70;53.80;;;;;;5074316;28;20032;-77
2023/05/01 10:36:14;;;;;;;4.22;1.30;;;23.00;53.60;;;;;;5074492;28;20115;-77
2023/05/01 10:38:44;;;;;;;4.22;1.30;;;23.30;52.70;;;;;;5069013;28;20072;-76
2023/05/01 10:41:10;;;;;;;3.08;0.88;;;23.40;52.10;;;;;;5071866;28;20028;-77
2023/05/01 10:43:35;;;;;;;4.82;1.33;;;23.60;51.60;;;;;;5071895;28;20419;-77
2023/05/01 10:46:07;;;;;;;6.10;1.35;;;23.70;50.90;;;;;;5061265;28;20467;-74
2023/05/01 10:48:42;;;;;;;4.03;1.55;;;23.80;50.30;;;;;;5053129;28;20086;-76
2023/05/01 10:51:16;;;;;;;3.45;1.45;;;23.70;50.10;;;;;;5072478;28;20021;-76
2023/05/01 10:53:47;;;;;;;5.03;1.42;;;23.70;50.00;;;;;;5071592;28;20033;-76
2023/05/01 10:56:24;;;;;;;5.35;1.45;;;23.60;50.10;;;;;;5070923;28;20717;-76
2023/05/01 10:58:52;;;;;;;5.20;1.85;;;23.60;50.40;;;;;;5073215;28;20064;-76
2023/05/01 11:01:38;;;;;;;6.60;1.45;;;23.90;50.40;;;;;;5071583;28;20033;-76
2023/05/01 11:04:22;;;;;;;4.43;1.70;;;24.30;49.50;;;;;;5072504;28;20029;-75
2023/05/01 11:07:17;;;;;;;3.92;1.55;;;24.70;49.30;;;;;;5072382;28;20028;-75
2023/05/01 11:09:53;;;;;;;5.28;1.65;;;25.10;49.50;;;;;;5067689;28;20036;-75
2023/05/01 11:12:47;;;;;;;6.03;2.17;;;25.60;49.60;;;;;;5072107;28;20414;-77
2023/05/01 11:15:25;;;;;;;3.90;1.70;;;25.90;49.20;;;;;;5066791;28;20044;-76
2023/05/01 11:17:51;;;;;;;5.90;2.30;;;26.10;48.70;;;;;;5072351;28;20453;-76
2023/05/01 11:20:23;;;;;;;6.13;2.05;;;26.50;48.90;;;;;;5072697;28;20059;-76
2023/05/01 11:22:51;;;;;;;3.28;1.38;;;26.90;47.80;;;;;;5072444;28;20031;-77
2023/05/01 11:25:19;;;;;;;3.42;1.27;;;27.20;47.40;;;;;;5071909;28;20500;-77
2023/05/01 11:27:49;;;;;;;7.63;1.10;;;27.40;47.30;;;;;;5070054;28;20039;-77
2023/05/01 11:30:15;;;;;;;3.63;1.30;;;27.50;47.10;;;;;;5055679;28;20024;-77
2023/05/01 11:32:46;;;;;;;6.25;1.67;;;27.40;46.60;;;;;;5071758;28;20497;-77
2023/05/01 11:35:22;;;;;;;5.50;1.90;;;27.30;46.20;;;;;;5055251;28;20504;-76
2023/05/01 11:37:54;;;;;;;6.47;1.73;;;27.10;45.80;;;;;;5073156;28;20032;-77
2023/05/01 11:40:30;;;;;;;3.53;1.40;;;27.00;46.00;;;;;;5073482;28;20016;-77
2023/05/01 11:43:06;;;;;;;8.63;1.77;;;26.90;46.00;;;;;;5061402;28;20101;-77
2023/05/01 11:45:33;;;;;;;3.75;1.27;;;26.90;45.80;;;;;;5073010;28;20021;-77
2023/05/01 11:47:59;;;;;;;6.15;1.77;;;26.90;45.90;;;;;;5073298;28;20073;-77
2023/05/01 11:50:38;;;;;;;5.03;1.73;;;26.90;45.70;;;;;;5072263;28;20119;-77
2023/05/01 11:53:10;;;;;;;6.68;1.92;;;26.90;45.30;;;;;;5073363;28;20036;-77
2023/05/01 11:55:37;;;;;;;5.18;1.80;;;26.80;45.10;;;;;;5072419;28;20495;-76
2023/05/01 11:58:03;;;;;;;3.60;1.75;;;26.70;45.20;;;;;;5072273;28;20037;-78
2023/05/01 12:00:41;;;;;;;6.68;2.08;;;26.50;45.30;;;;;;5073223;28;20020;-77
2023/05/01 12:03:11;;;;;;;4.63;1.45;;;26.50;45.40;;;;;;5072364;28;20082;-78
2023/05/01 12:05:41;;;;;;;5.70;1.50;;;26.40;45.40;;;;;;5072063;28;20082;-77
2023/05/01 12:08:10;;;;;;;3.97;0.80;;;26.40;45.20;;;;;;5071973;28;20062;-77
2023/05/01 12:10:37;;;;;;;4.70;1.15;;;26.40;45.10;;;;;;5072774;28;20085;-76
2023/05/01 12:13:04;;;;;;;2.47;0.80;;;26.40;45.00;;;;;;5073697;28;20408;-77
2023/05/01 12:15:33;;;;;;;3.10;0.95;;;26.40;44.60;;;;;;5055340;28;20043;-77
2023/05/01 12:17:58;;;;;;;3.70;0.70;;;26.40;44.40;;;;;;5071447;28;20505;-76
2023/05/01 12:20:54;;;;;;;4.13;0.93;;;26.50;44.20;;;;;;5071783;28;20055;-77
2023/05/01 12:23:32;;;;;;;6.40;0.80;;;26.50;43.90;;;;;;5073300;28;20388;-77
2023/05/01 12:26:01;;;;;;;4.60;1.08;;;26.40;43.80;;;;;;5072569;28;20025;-77
2023/05/01 12:28:27;;;;;;;4.28;0.70;;;26.40;43.80;;;;;;5071618;28;20024;-77
2023/05/01 12:31:01;;;;;;;3.60;0.90;;;26.40;43.60;;;;;;5072846;28;20086;-77
2023/05/01 12:33:26;;;;;;;1.83;0.60;;;26.40;43.30;;;;;;5071492;28;20036;-78
2023/05/01 12:35:52;;;;;;;5.15;0.65;;;26.40;43.20;;;;;;5054993;28;20102;-77
2023/05/01 12:38:22;;;;;;;3.15;0.43;;;26.50;43.20;;;;;;5072394;28;20036;-76
2023/05/01 12:40:58;;;;;;;1.65;0.60;;;26.50;42.90;;;;;;5072076;28;20078;-82
2023/05/01 12:43:34;;;;;;;3.30;0.70;;;26.40;42.60;;;;;;5071916;28;20381;-81
2023/05/01 12:46:01;;;;;;;1.77;0.50;;;26.40;42.50;;;;;;5073196;28;20052;-83
2023/05/01 12:48:28;;;;;;;4.15;0.93;;;26.40;42.50;;;;;;5054872;28;20037;-84
2023/05/01 12:50:54;;;;;;;2.05;0.70;;;26.30;42.30;;;;;;5073018;28;20112;-84